Latest Weather Observations for Friendly Beaches

IDT60801

Issued at 8:01 am EDT Monday 6 February 2023 (issued every 10 minutes, with the page automatically refreshed every 10 minutes)

About weather observations | Map of weather stations | Latest weather observations for TAS | Other Formats
Station Details ID: 092114 Name: FRIENDLY BEACHES Lat: -42.00 Lon: 148.28 Height: 55.0 m
Data from the previous 72 hours. | See also: Recent months at Friendly Beaches
Date/Time
EDT
Temp
°C
App
Temp
°C
Dew
Point
°C
Rel
Hum
%
Delta-T
°C
Wind Press
QNH
hPa
Press
MSL
hPa
Rain since
9am
mm
Dir  Spd
km/h
Gust
km/h
Spd
kts
Gust
kts
06/08:00am 15.1 14.3 10.9 76 2.2 W 6 9 3 5 1013.8 1013.7 0.0
06/07:30am 13.0 12.0 10.2 83 1.4 W 6 7 3 4 1013.4 1013.3 0.0
06/07:00am 11.6 10.4 9.7 88 1.0 WNW 6 9 3 5 1013.6 1013.5 0.0
06/06:30am 11.4 10.1 10.0 91 0.7 WNW 7 9 4 5 1013.2 1013.1 0.0
06/06:00am 11.8 9.8 10.2 90 0.8 W 11 17 6 9 1013.0 1012.9 0.0
06/05:30am 12.0 10.5 10.7 92 0.7 W 9 13 5 7 1012.8 1012.7 0.0
06/05:00am 12.3 11.4 11.4 94 0.5 W 7 11 4 6 1012.3 1012.2 0.0
06/04:30am 12.4 11.5 11.5 94 0.5 W 7 9 4 5 1012.1 1012.0 0.0
06/04:00am 12.4 11.5 11.3 93 0.6 W 7 9 4 5 1012.0 1011.9 0.0
06/03:30am 12.9 11.8 11.8 93 0.6 W 9 13 5 7 1012.2 1012.1 0.0
06/03:00am 12.8 11.6 11.7 93 0.6 W 9 11 5 6 1012.2 1012.1 0.0
06/02:30am 13.1 12.0 12.0 93 0.6 WNW 9 9 5 5 1012.4 1012.3 0.0
06/02:00am 13.2 12.5 12.1 93 0.6 WNW 7 9 4 5 1012.4 1012.3 0.0
06/01:30am 13.1 12.5 11.7 91 0.7 W 6 9 3 5 1012.5 1012.4 0.0
06/01:00am 13.4 12.9 12.0 91 0.8 W 6 7 3 4 1012.7 1012.6 0.0
06/12:30am 13.7 13.2 12.1 90 0.9 W 6 7 3 4 1013.0 1012.9 0.0
06/12:00am 14.4 14.1 12.6 89 1.0 SSE 6 9 3 5 1013.0 1012.9 0.0
 
Date/Time
EDT
Temp
°C
App
Temp
°C
Dew
Point
°C
Rel
Hum
%
Delta-T
°C
Wind Press
QNH
hPa
Press
MSL
hPa
Rain since
9am
mm
Dir  Spd
km/h
Gust
km/h
Spd
kts
Gust
kts
05/11:30pm 14.5 13.6 12.7 89 1.0 SE 9 13 5 7 1013.0 1012.9 0.0
05/11:00pm 14.5 13.2 12.4 87 1.1 SE 11 15 6 8 1013.2 1013.1 0.0
05/10:30pm 14.7 13.7 12.4 86 1.3 ESE 9 13 5 7 1013.4 1013.3 0.0
05/10:00pm 15.2 13.9 12.5 84 1.5 ESE 11 15 6 8 1013.4 1013.3 0.0
05/09:30pm 15.4 14.3 13.1 86 1.3 E 11 15 6 8 1013.1 1013.0 0.0
05/09:00pm 15.6 15.0 13.4 87 1.2 E 9 11 5 6 1012.6 1012.5 0.0
05/08:30pm 15.9 15.6 13.2 84 1.5 E 7 11 4 6 1012.6 1012.5 0.0
05/08:00pm 16.8 16.5 13.3 80 2.0 ENE 7 13 4 7 1012.3 1012.2 0.0
05/07:30pm 18.3 17.6 13.2 72 2.9 ENE 9 15 5 8 1012.1 1012.0 0.0
05/07:00pm 19.1 18.0 13.1 68 3.4 ENE 11 17 6 9 1012.1 1012.0 0.0
05/06:30pm 19.6 17.5 12.4 63 4.0 NE 15 22 8 12 1011.7 1011.6 0.0
05/06:00pm 20.1 17.4 11.8 59 4.6 NE 17 26 9 14 1011.9 1011.8 0.0
05/05:30pm 20.4 17.7 11.6 57 4.9 NE 17 24 9 13 1011.9 1011.8 0.0
05/05:00pm 21.2 18.2 12.1 56 5.1 NE 19 30 10 16 1011.7 1011.6 0.0
05/04:30pm 20.9 17.5 10.7 52 5.6 NE 19 32 10 17 1011.6 1011.5 0.0
05/04:00pm 21.3 18.4 11.1 52 5.6 NE 17 28 9 15 1011.8 1011.7 0.0
05/03:30pm 21.6 19.2 10.1 48 6.3 NE 13 24 7 13 1011.8 1011.7 0.0
05/03:00pm 21.7 18.5 9.9 47 6.4 NE 17 28 9 15 1011.8 1011.7 0.0
05/02:30pm 21.8 19.3 10.9 50 6.0 NE 15 24 8 13 1011.9 1011.8 0.0
05/02:00pm 21.3 17.7 9.9 48 6.2 NE 19 26 10 14 1011.7 1011.6 0.0
05/01:30pm 21.2 17.3 9.4 47 6.3 NE 20 30 11 16 1011.7 1011.6 0.0
05/01:00pm 22.6 20.6 11.4 49 6.3 NE 13 24 7 13 1011.5 1011.4 0.0
05/12:30pm 22.9 21.2 7.4 37 8.1 SW 6 15 3 8 1011.3 1011.2 0.0
05/12:00pm 21.4 18.5 6.5 38 7.6 W 11 19 6 10 1011.4 1011.3 0.0
05/11:30am 20.7 18.4 7.3 42 6.9 WSW 9 19 5 10 1011.3 1011.2 0.0
05/11:00am 19.8 16.4 7.5 45 6.3 SW 15 24 8 13 1011.1 1011.0 0.0
05/10:30am 19.2 16.2 7.6 47 5.9 WSW 13 22 7 12 1011.2 1011.1 0.0
05/10:00am 17.5 13.8 6.4 48 5.5 WSW 15 22 8 12 1011.0 1010.9 0.0
05/09:30am 17.3 14.3 7.6 53 4.9 WSW 13 22 7 12 1010.6 1010.5 0.0
05/09:00am 16.3 12.6 7.8 57 4.3 WSW 17 28 9 15 1010.0 1009.9 9.0
05/08:30am 15.4 12.0 7.7 60 3.8 WSW 15 24 8 13 1009.6 1009.5 9.0
05/08:00am 14.6 11.1 7.2 61 3.6 WSW 15 24 8 13 1008.8 1008.7 9.0
05/07:30am 13.7 10.3 7.5 66 3.0 WSW 15 24 8 13 1008.4 1008.3 9.0
05/07:00am 12.5 9.8 7.2 70 2.6 W 11 17 6 9 1008.1 1008.0 9.0
05/06:30am 12.9 10.1 7.1 68 2.8 WSW 11 20 6 11 1007.6 1007.5 9.0
05/06:00am 13.0 9.5 7.2 68 2.8 WSW 15 28 8 15 1006.8 1006.6 9.0
05/05:30am 13.7 9.6 7.9 68 2.9 WSW 19 32 10 17 1006.2 1006.0 9.0
05/05:00am 13.8 10.8 7.8 67 3.0 WSW 13 22 7 12 1005.9 1005.7 9.0
05/04:30am 14.0 10.4 8.2 68 2.9 WSW 17 32 9 17 1005.4 1005.2 9.0
05/04:00am 14.4 10.3 8.8 69 2.9 WSW 20 33 11 18 1005.3 1005.1 9.0
05/03:30am 14.4 11.8 9.2 71 2.7 WSW 13 20 7 11 1005.3 1005.1 9.0
05/03:00am 14.6 12.0 9.4 71 2.7 WSW 13 20 7 11 1005.2 1005.0 9.0
05/02:30am 14.5 12.3 9.5 72 2.6 WSW 11 19 6 10 1004.5 1004.3 9.0
05/02:00am 14.4 11.8 9.2 71 2.7 WSW 13 19 7 10 1003.9 1003.7 9.0
05/01:30am 14.5 11.1 9.1 70 2.8 WSW 17 30 9 16 1003.4 1003.2 9.0
05/01:00am 14.4 10.6 9.2 71 2.7 WSW 19 33 10 18 1002.7 1002.5 9.0
05/12:30am 14.3 10.4 9.3 72 2.6 WSW 20 37 11 20 1002.3 1002.1 9.0
05/12:00am 14.2 10.9 9.4 73 2.5 WSW 17 33 9 18 1002.1 1001.9 9.0
 
Date/Time
EDT
Temp
°C
App
Temp
°C
Dew
Point
°C
Rel
Hum
%
Delta-T
°C
Wind Press
QNH
hPa
Press
MSL
hPa
Rain since
9am
mm
Dir  Spd
km/h
Gust
km/h
Spd
kts
Gust
kts
04/11:30pm 14.3 11.0 9.7 74 2.4 WSW 17 30 9 16 1001.6 1001.4 9.0
04/11:00pm 14.3 11.0 9.7 74 2.4 WSW 17 30 9 16 1001.4 1001.2 9.0
04/10:30pm 14.3 11.5 10.1 76 2.2 WSW 15 24 8 13 1001.5 1001.3 9.0
04/10:00pm 14.0 11.7 10.4 79 1.9 WSW 13 17 7 9 1001.2 1001.1 9.0
04/09:30pm 14.1 12.0 11.3 83 1.5 WSW 13 20 7 11 1000.9 1000.8 9.0
04/09:00pm 14.1 13.0 12.1 88 1.1 SW 9 17 5 9 1000.5 1000.4 9.0
04/08:30pm 14.1 12.4 12.3 89 1.0 SW 13 20 7 11 999.9 999.8 9.0
04/08:00pm 14.4 12.7 12.6 89 1.0 SW 13 20 7 11 999.4 999.3 9.0
04/07:30pm 14.3 11.5 12.5 89 1.0 SSW 19 35 10 19 998.9 998.8 9.0
04/07:00pm 14.5 11.2 12.9 90 0.9 SSW 22 32 12 17 998.1 998.0 9.0
04/06:30pm 15.0 13.1 13.0 88 1.1 S 15 28 8 15 997.4 997.3 8.8
04/06:00pm 15.0 13.2 13.4 90 0.9 SSW 15 26 8 14 997.1 997.0 8.8
04/05:30pm 14.7 12.6 13.6 93 0.6 WSW 17 28 9 15 996.7 996.6 8.8
04/05:00pm 14.4 12.9 13.1 92 0.7 WSW 13 20 7 11 996.6 996.5 7.8
04/04:30pm 15.5 13.9 14.0 91 0.8 SSW 15 22 8 12 996.3 996.2 6.0
04/04:00pm 14.4 12.4 12.8 90 0.9 SW 15 22 8 12 996.0 995.9 5.8
04/03:30pm 16.1 15.0 14.3 89 1.0 SW 13 20 7 11 995.8 995.7 4.4
04/03:00pm 15.3 14.9 14.0 92 0.7 WSW 9 17 5 9 995.8 995.7 4.4
04/02:30pm 15.0 14.1 13.7 92 0.7 WSW 11 22 6 12 995.6 995.5 4.0
04/02:00pm 14.9 13.9 13.3 90 0.9 WSW 11 19 6 10 995.5 995.4 3.2
04/01:30pm 14.5 14.4 13.4 93 0.6 WSW 6 9 3 5 995.4 995.3 3.0
04/01:00pm 14.7 12.6 12.4 86 1.3 W 15 26 8 14 995.7 995.6 2.0
04/12:30pm 14.2 12.5 12.6 90 0.9 W 13 20 7 11 995.3 995.2 1.8
04/12:00pm 13.9 12.5 12.3 90 0.9 W 11 19 6 10 995.5 995.4 1.6
04/11:30am 14.0 13.5 12.6 91 0.8 W 7 13 4 7 995.6 995.5 1.4
04/11:00am 13.5 12.4 12.1 91 0.8 W 9 15 5 8 995.6 995.5 1.0
04/10:30am 12.6 11.6 11.0 90 0.8 W 7 17 4 9 995.8 995.7 0.6
04/10:00am 12.1 9.7 10.2 88 1.0 W 13 24 7 13 995.7 995.6 0.4
04/09:30am 13.3 11.8 9.2 76 2.1 W 7 11 4 6 995.6 995.5 0.0
04/09:00am 14.2 12.0 7.7 65 3.2 W 9 15 5 8 995.3 995.2 0.0
04/08:30am 14.7 13.3 7.3 61 3.6 WSW 4 11 2 6 995.1 995.0 0.0
04/08:00am 15.5 13.5 6.2 54 4.5 NNW 6 11 3 6 994.8 994.7 0.0
04/07:30am 12.9 11.1 7.1 68 2.8 N 6 9 3 5 994.5 994.4 0.0
04/07:00am 11.6 9.6 6.1 69 2.6 NNW 6 9 3 5 994.1 994.0 0.0
04/06:30am 10.9 8.7 6.1 72 2.2 N 7 9 4 5 994.0 993.9 0.0
04/06:00am 10.2 7.5 5.4 72 2.2 N 9 11 5 6 993.9 993.8 0.0
04/05:30am 10.0 8.8 4.8 70 2.3 CALM 0 0 0 0 993.9 993.8 0.0
04/05:00am 10.8 8.4 5.1 68 2.6 NNW 7 11 4 6 993.7 993.6 0.0
04/04:30am 10.9 8.2 5.4 69 2.5 N 9 13 5 7 993.5 993.4 0.0
04/04:00am 9.9 7.6 4.9 71 2.3 N 6 7 3 4 993.8 993.7 0.0
04/03:30am 10.9 8.6 5.0 67 2.7 NW 6 6 3 3 993.9 993.8 0.0
04/03:00am 10.9 8.5 5.2 68 2.6 N 7 13 4 7 994.3 994.2 0.0
04/02:30am 11.4 8.9 4.8 64 3.0 NW 7 11 4 6 994.4 994.3 0.0
04/02:00am 11.8 9.3 4.8 62 3.2 NW 7 17 4 9 994.3 994.2 0.0
04/01:30am 12.0 9.5 5.0 62 3.2 N 7 15 4 8 994.4 994.3 0.0
04/01:00am 12.0 9.2 5.2 63 3.2 NNW 9 15 5 8 994.5 994.4 0.0
04/12:30am 12.9 8.9 5.1 59 3.6 N 15 24 8 13 994.4 994.3 0.0
04/12:00am 12.8 10.4 5.2 60 3.6 NW 7 11 4 6 994.3 994.2 0.0
 
Date/Time
EDT
Temp
°C
App
Temp
°C
Dew
Point
°C
Rel
Hum
%
Delta-T
°C
Wind Press
QNH
hPa
Press
MSL
hPa
Rain since
9am
mm
Dir  Spd
km/h
Gust
km/h
Spd
kts
Gust
kts
03/11:30pm 13.4 10.6 5.3 58 3.8 WNW 9 17 5 9 993.8 993.7 0.0
03/11:00pm 13.8 11.1 5.4 57 4.0 NW 9 17 5 9 993.9 993.8 0.0
03/10:30pm 14.2 10.7 5.6 56 4.1 NW 13 28 7 15 993.3 993.2 0.0
03/10:00pm 14.4 11.7 5.5 55 4.3 WNW 9 15 5 8 992.8 992.7 0.0
03/09:30pm 14.8 12.2 5.9 55 4.3 NW 9 17 5 9 992.5 992.4 0.0
03/09:00pm 15.7 11.8 5.3 50 5.0 NW 15 24 8 13 992.0 991.9 0.0
03/08:30pm 16.1 12.8 4.5 46 5.5 WNW 11 22 6 12 991.2 991.0 0.0
03/08:00pm 17.0 12.8 3.7 41 6.3 WNW 15 26 8 14 990.9 990.7 0.0
03/07:30pm 18.3 15.1 5.2 42 6.4 W 11 20 6 11 990.4 990.2 0.0
03/07:00pm 18.0 15.6 5.2 43 6.3 WNW 7 19 4 10 989.8 989.6 0.0
03/06:30pm 17.4 14.3 8.8 57 4.5 NNE 15 24 8 13 989.3 989.1 0.0
03/06:00pm 19.4 17.2 9.3 52 5.4 NNE 11 17 6 9 989.0 988.8 0.0
03/05:30pm 17.1 14.1 7.7 54 4.8 NNE 13 22 7 12 989.0 988.8 0.0
03/05:00pm 19.2 17.4 9.4 53 5.2 ENE 9 15 5 8 988.9 988.7 0.0
03/04:30pm 19.3 17.8 10.6 57 4.7 E 9 15 5 8 988.7 988.5 0.0
03/04:00pm 18.8 16.5 9.0 53 5.2 E 11 17 6 9 988.8 988.6 0.0
03/03:30pm 21.0 18.2 9.9 49 6.0 E 15 19 8 10 988.6 988.4 0.0
03/03:00pm 20.7 17.6 10.2 51 5.8 ESE 17 20 9 11 988.5 988.3 0.0
03/02:30pm 19.4 16.4 7.8 47 6.0 E 13 19 7 10 988.3 988.1 0.0
03/02:00pm 20.3 17.3 9.2 49 6.0 E 15 22 8 12 988.2 988.0 0.0
03/01:30pm 19.6 16.5 8.9 50 5.6 E 15 19 8 10 988.2 988.0 0.0
03/01:00pm 19.1 16.4 7.5 47 6.0 E 11 17 6 9 988.1 987.9 0.0
03/12:30pm 19.6 17.2 8.6 49 5.7 E 11 17 6 9 987.9 987.7 0.0
03/12:00pm 19.4 16.3 9.0 51 5.5 ESE 15 20 8 11 987.8 987.6 0.0
03/11:30am 18.4 15.6 8.7 53 5.0 E 13 19 7 10 987.5 987.3 0.0
03/11:00am 18.6 16.6 8.6 52 5.3 ENE 9 17 5 9 987.2 987.0 0.0
03/10:30am 17.8 15.1 7.5 51 5.2 ENE 11 17 6 9 987.0 986.8 0.0
03/10:00am 15.9 13.9 6.1 52 4.8 WSW 6 13 3 7 986.6 986.4 0.0
03/09:30am 15.4 13.3 5.9 53 4.6 WSW 6 11 3 6 986.4 986.2 0.0
03/09:00am 14.4 12.4 7.2 62 3.6 W 7 11 4 6 986.1 985.9 3.0
03/08:30am 13.2 11.5 7.4 68 2.8 W 6 9 3 5 985.8 985.6 3.0

Other formats

Comma delimited format used in spreadsheet applications
http://www.bom.gov.au/fwo/IDT60801/IDT60801.94987.axf

JavaScript Object Notation format (JSON) in row-major order
http://www.bom.gov.au/fwo/IDT60801/IDT60801.94987.json

Data quality

Most of these data are generated automatically and are frequently updated. Quality checks on data are not normally performed. It is possible for incorrect values to appear. Refer to information at About Latest Weather Observations and please check the disclaimer before using these data.